M I D A S
Marine Information and Data Acquisition System
Tripno 960 of the Zeeleeuw from 2005-09-22 06:30:24 to 2005-09-22 12:49:48
Back to CruiseResearch ActivitiesStationsMapUnderway DataData graphs

EquipmentUnitsComment
TimeDGPSUTC
LatitudeDGPSDM.mWGS84
LongitudeDGPSDM.mWGS84
TemperatureSBE03/SBE38deg celciusITS90
ConductivitySBE21S/mITS90
SalinitySBE21 Practical Salinity Units
ChlorophylAChelsea fluorimeterg/lCalibrated in Aceton
Missing or incorrect values are displayed as -999
Sea surface data collected by the RV Zeeleeuw from 2005-09-22 06:26:50 to 2005-09-22 13:01:30
Time Latitude Longitude Temperature Conductivity Salinity ChlorophylA
2005-09-22 06:27:54 51°13.601 2°56.102 -999 0.071462 0.391173 -0.241899
2005-09-22 06:28:54 51°13.6 2°56.102 -999 0.071462 0.391208 -0.241899
2005-09-22 06:29:54 51°13.6 2°56.096 -999 0.071462 0.391249 -0.241899
2005-09-22 06:30:55 51°13.622 2°56.023 -999 0.071462 0.391284 -0.241899
2005-09-22 06:31:55 51°13.657 2°55.904 -999 0.071462 0.391326 -0.241899
2005-09-22 06:32:55 51°13.704 2°55.779 -999 0.071462 0.391353 -0.241899
2005-09-22 06:33:54 51°13.733 2°55.701 -999 0.071462 0.391395 -0.241899
2005-09-22 06:34:55 51°13.752 2°55.722 -999 0.071462 0.391457 -0.241899
2005-09-22 06:35:55 51°13.738 2°55.705 -999 0.071462 0.391457 -0.241899
2005-09-22 06:36:54 51°13.746 2°55.687 -999 0.071462 0.391499 -0.241899
2005-09-22 06:37:55 51°13.86 2°55.615 -999 0.071462 0.391534 -0.241899
2005-09-22 06:38:54 51°13.986 2°55.528 -999 0.071462 0.391575 -0.241899
2005-09-22 06:39:55 51°14.096 2°55.448 -999 0.071359 0.391027 -0.241899
2005-09-22 06:40:54 51°14.196 2°55.357 -999 0.071359 0.391069 -0.241899
2005-09-22 06:41:54 51°14.282 2°55.228 -999 0.071359 0.391104 -0.241899
2005-09-22 06:42:54 51°14.372 2°55.031 -999 0.071359 0.391131 -0.241899
2005-09-22 06:43:55 51°14.498 2°54.832 -999 0.071359 0.391166 -0.241899
2005-09-22 06:44:54 51°14.675 2°54.677 -999 0.071359 0.391208 -0.241899
2005-09-22 06:45:54 51°14.867 2°54.516 -999 0.071359 0.391236 -0.241899
2005-09-22 06:46:54 51°15.057 2°54.351 -999 0.071359 0.39127 -0.241899
2005-09-22 06:47:54 51°15.254 2°54.191 -999 0.071359 0.391312 -0.241899
2005-09-22 06:48:55 51°15.451 2°54.008 -999 0.071359 0.391333 -0.241899
2005-09-22 06:49:54 51°15.646 2°53.837 -999 0.071359 0.391374 -0.241899
2005-09-22 06:50:55 51°15.845 2°53.663 -999 0.071359 0.391416 -0.241899
2005-09-22 06:51:54 51°16.037 2°53.496 -999 0.071359 0.391444 -0.241899
2005-09-22 06:52:54 51°16.237 2°53.334 -999 0.071256 0.390888 -0.241899
2005-09-22 06:53:54 51°16.439 2°53.173 -999 0.071256 0.390923 -0.241899
2005-09-22 06:54:54 51°16.636 2°53.004 -999 0.071256 0.390958 -0.241899
2005-09-22 06:55:55 51°16.835 2°52.834 -999 0.071256 0.390993 -0.241899
2005-09-22 06:56:55 51°17.032 2°52.665 -999 0.071256 0.39102 -0.241899
2005-09-22 06:57:54 51°17.225 2°52.491 -999 0.071256 0.391055 -0.241899
2005-09-22 06:58:54 51°17.419 2°52.306 -999 0.071256 0.391083 -0.241899
2005-09-22 06:59:54 51°17.617 2°52.135 -999 0.071256 0.391118 -0.241899
2005-09-22 07:00:54 51°17.812 2°51.961 -999 0.071256 0.391152 -0.241899
2005-09-22 07:01:54 51°18.009 2°51.788 -999 0.071256 0.39118 -0.241899
2005-09-22 07:02:55 51°18.209 2°51.616 -999 0.071256 0.391215 -0.241899
2005-09-22 07:03:55 51°18.41 2°51.445 -999 0.071256 0.391243 -0.241899
2005-09-22 07:04:55 51°18.61 2°51.273 -999 0.071256 0.391271 -0.241899
2005-09-22 07:05:54 51°18.809 2°51.109 -999 0.071256 0.391305 -0.241899
2005-09-22 07:06:55 51°19.01 2°50.943 -999 0.071153 0.390749 -0.241899
2005-09-22 07:07:54 51°19.209 2°50.781 -999 0.071153 0.390777 -0.241899
2005-09-22 07:08:54 51°19.409 2°50.618 -999 0.071153 0.390805 -0.241899
2005-09-22 07:09:55 51°19.613 2°50.452 -999 0.071153 0.39084 -0.241899
2005-09-22 07:10:54 51°19.815 2°50.287 -999 0.071153 0.390867 -0.241899
2005-09-22 07:11:55 51°20.021 2°50.12 -999 0.071153 0.390895 -0.241899
2005-09-22 07:12:54 51°20.22 2°49.955 -999 0.071153 0.390923 -0.241899
2005-09-22 07:13:54 51°20.423 2°49.791 -999 0.071153 0.390958 -0.241899
2005-09-22 07:14:54 51°20.624 2°49.616 -999 0.071153 0.390979 -0.241899
2005-09-22 07:15:55 51°20.822 2°49.424 -999 0.071153 0.391014 -0.241899
2005-09-22 07:16:55 51°21.02 2°49.248 -999 0.071153 0.391034 -0.241899
2005-09-22 07:17:55 51°21.221 2°49.081 -999 0.071153 0.391062 -0.241899
2005-09-22 07:18:55 51°21.423 2°48.914 -999 0.071153 0.391097 -0.241899
2005-09-22 07:19:55 51°21.627 2°48.748 -999 0.071153 0.391118 -0.241899
2005-09-22 07:20:54 51°21.828 2°48.59 -999 0.07105 0.390568 -0.241899
2005-09-22 07:21:55 51°22.034 2°48.433 -999 0.07105 0.390589 -0.275608
2005-09-22 07:22:55 51°22.237 2°48.278 -999 0.07105 0.390617 -0.275608
2005-09-22 07:23:54 51°22.44 2°48.123 -999 0.07105 0.390645 -0.241899
2005-09-22 07:24:54 51°22.645 2°47.972 -999 0.07105 0.390673 -0.275608
2005-09-22 07:25:55 51°22.857 2°47.819 -999 0.07105 0.3907 -0.241899
2005-09-22 07:26:54 51°23.063 2°47.673 -999 0.07105 0.390728 -0.275608
2005-09-22 07:27:55 51°23.273 2°47.525 -999 0.07105 0.390756 -0.241899
2005-09-22 07:28:54 51°23.477 2°47.375 -999 0.07105 0.390784 -0.275608
2005-09-22 07:29:55 51°23.684 2°47.223 -999 0.07105 0.390805 -0.241899
2005-09-22 07:30:54 51°23.893 2°47.097 -999 0.07105 0.390833 -0.241899
2005-09-22 07:31:54 51°24.106 2°46.987 -999 0.07105 0.390861 -0.241899
2005-09-22 07:32:54 51°24.321 2°46.877 -999 0.07105 0.390882 -0.275608
2005-09-22 07:33:54 51°24.52 2°46.952 -999 0.070947 0.390324 -0.241899
2005-09-22 07:34:55 51°24.611 2°47.249 -999 0.070947 0.390345 -0.275608
2005-09-22 07:35:55 51°24.686 2°47.563 -999 0.070947 0.39038 -0.275608
2005-09-22 07:36:55 51°24.765 2°47.874 -999 0.070947 0.390394 -0.275608
2005-09-22 07:37:54 51°24.841 2°48.183 -999 0.070947 0.390408 -0.241899
2005-09-22 07:38:54 51°24.919 2°48.495 -999 0.070947 0.390436 -0.275608
2005-09-22 07:39:54 51°24.993 2°48.808 -999 0.070947 0.390457 -0.275608
2005-09-22 07:40:54 51°25.071 2°49.117 -999 0.070947 0.390484 -0.241899
2005-09-22 07:41:54 51°25.149 2°49.425 -999 0.070947 0.390505 -0.275608
2005-09-22 07:42:55 51°25.229 2°49.737 -999 0.070947 0.390533 -0.275608
2005-09-22 07:43:55 51°25.306 2°50.042 -999 0.070947 0.390554 -0.275608
2005-09-22 07:44:54 51°25.382 2°50.348 -999 0.070947 0.390575 -0.275608
2005-09-22 07:45:55 51°25.457 2°50.661 -999 0.070947 0.390596 -0.275608
2005-09-22 07:46:54 51°25.534 2°50.964 -999 0.070947 0.390624 -0.275608
2005-09-22 07:47:54 51°25.611 2°51.268 -999 0.070947 0.390645 -0.275608
2005-09-22 07:48:55 51°25.69 2°51.576 -999 0.070947 0.390666 -0.241899
2005-09-22 07:49:54 51°25.77 2°51.879 -999 0.070947 0.390687 -0.275608
2005-09-22 07:50:54 51°25.848 2°52.187 -999 0.070844 0.390129 -0.275608
2005-09-22 07:51:54 51°25.925 2°52.493 -999 0.070844 0.39015 -0.275608
2005-09-22 07:52:55 51°26.002 2°52.799 -999 0.070844 0.390178 -0.275608
2005-09-22 07:53:54 51°26.079 2°53.105 -999 0.070844 0.390199 -0.275608
2005-09-22 07:54:54 51°26.156 2°53.411 -999 0.070844 0.390226 -0.275608
2005-09-22 07:55:55 51°26.233 2°53.724 -999 0.070844 0.390247 -0.275608
2005-09-22 07:56:54 51°26.308 2°54.028 -999 0.070844 0.390275 -0.275608
2005-09-22 07:57:55 51°26.384 2°54.343 -999 0.070844 0.390296 -0.275608
2005-09-22 07:58:55 51°26.459 2°54.651 -999 0.070844 0.390324 -0.275608
2005-09-22 07:59:54 51°26.53 2°54.957 -999 0.070844 0.390345 -0.275608
2005-09-22 08:00:55 51°26.613 2°55.267 -999 0.070844 0.390366 -0.275608
2005-09-22 08:01:54 51°26.692 2°55.572 -999 0.070844 0.390394 -0.275608
2005-09-22 08:02:55 51°26.772 2°55.883 -999 0.070844 0.390422 -0.275608
2005-09-22 08:03:54 51°26.853 2°56.19 -999 0.070844 0.390436 -0.275608
2005-09-22 08:04:55 51°26.936 2°56.501 -999 0.070844 0.390463 -0.275608
2005-09-22 08:05:54 51°27.018 2°56.801 -999 0.070844 0.390491 -0.275608
2005-09-22 08:06:55 51°27.096 2°57.109 -999 0.070844 0.390512 -0.275608
2005-09-22 08:07:55 51°27.176 2°57.415 -999 0.070844 0.390533 -0.275608
2005-09-22 08:08:54 51°27.255 2°57.72 -999 0.070844 0.390554 -0.275608
2005-09-22 08:09:55 51°27.335 2°58.031 -999 0.070741 0.389989 -0.275608
2005-09-22 08:10:55 51°27.415 2°58.338 -999 0.070741 0.390017 -0.275608
2005-09-22 08:11:55 51°27.494 2°58.645 -999 0.070741 0.390045 -0.275608
2005-09-22 08:12:54 51°27.573 2°58.949 -999 0.070741 0.390073 -0.275608
2005-09-22 08:13:55 51°27.649 2°59.264 -999 0.070741 0.390101 -0.275608
2005-09-22 08:14:55 51°27.723 2°59.577 -999 0.070741 0.390142 -0.275608
2005-09-22 08:15:54 51°27.798 2°59.887 -999 0.070741 0.39017 -0.275608
2005-09-22 08:16:54 51°27.871 3°0.201 -999 0.070741 0.390205 -0.275608
2005-09-22 08:17:55 51°27.945 3°0.519 -999 0.070741 0.39024 -0.275608
2005-09-22 08:18:55 51°28.016 3°0.831 -999 0.070741 0.390268 -0.275608
2005-09-22 08:19:55 51°28.089 3°1.145 -999 0.070741 0.390303 -0.275608
2005-09-22 08:20:55 51°28.163 3°1.46 -999 0.070741 0.390338 -0.275608
2005-09-22 08:21:54 51°28.237 3°1.773 -999 0.070741 0.390373 -0.275608
2005-09-22 08:22:55 51°28.314 3°2.089 -999 0.070741 0.390408 -0.275608
2005-09-22 08:23:54 51°28.391 3°2.402 -999 0.070741 0.39045 -0.275608
2005-09-22 08:24:54 51°28.469 3°2.715 -999 0.070741 0.390492 -0.275608
2005-09-22 08:25:55 51°28.549 3°3.03 -999 0.070741 0.390541 -0.275608
2005-09-22 08:26:55 51°28.628 3°3.341 -999 0.070639 0.390002 -0.275608
2005-09-22 08:27:54 51°28.715 3°3.644 -999 0.070639 0.390051 -0.275608
2005-09-22 08:28:55 51°28.813 3°3.944 -999 0.070639 0.390128 -0.275608
2005-09-22 08:29:54 51°28.999 3°4.077 -999 0.070639 0.390163 -0.275608
2005-09-22 08:30:54 51°29.215 3°4.042 -999 0.070639 0.390198 -0.275608
2005-09-22 08:31:54 51°29.427 3°3.963 -999 0.070639 0.390254 -0.275608
2005-09-22 08:32:54 51°29.637 3°3.885 -999 0.070639 0.390303 -0.275608
2005-09-22 08:33:55 51°29.847 3°3.8 -999 0.070639 0.390352 -0.275608
2005-09-22 08:34:55 51°30.037 3°3.659 -999 0.070639 0.390415 -0.275608
2005-09-22 08:35:54 51°30.075 3°3.333 -999 0.070536 0.389855 -0.275608
2005-09-22 08:36:54 51°30.017 3°2.984 -999 0.070536 0.389869 -0.275608
2005-09-22 08:37:55 51°29.969 3°2.624 -999 0.070536 0.389918 -0.275608
2005-09-22 08:38:54 51°29.921 3°2.268 -999 0.070536 0.389967 -0.275608
2005-09-22 08:39:55 51°29.867 3°1.907 -999 0.070536 0.389995 -0.275608
2005-09-22 08:40:54 51°29.813 3°1.554 -999 0.070536 0.390023 -0.275608
2005-09-22 08:41:54 51°29.76 3°1.197 -999 0.070536 0.390058 -0.275608
2005-09-22 08:42:55 51°29.706 3°0.833 -999 0.070536 0.390086 -0.275608
2005-09-22 08:43:54 51°29.651 3°0.477 -999 0.070536 0.390114 -0.275608
2005-09-22 08:44:55 51°29.593 3°0.114 -999 0.070536 0.390142 -0.275608
2005-09-22 08:45:54 51°29.532 2°59.759 -999 0.070536 0.390177 -0.275608
2005-09-22 08:46:54 51°29.471 2°59.399 -999 0.070536 0.390198 -0.275608
2005-09-22 08:47:55 51°29.411 2°59.034 -999 0.070536 0.390226 -0.275608
2005-09-22 08:48:54 51°29.35 2°58.676 -999 0.070536 0.390262 -0.275608
2005-09-22 08:49:55 51°29.288 2°58.313 -999 0.070536 0.390283 -0.275608
2005-09-22 08:50:55 51°29.226 2°57.951 -999 0.070536 0.390311 -0.275608
2005-09-22 08:51:55 51°29.161 2°57.586 -999 0.070536 0.390339 -0.275608
2005-09-22 08:52:55 51°29.101 2°57.217 -999 0.070536 0.390367 -0.275608
2005-09-22 08:53:54 51°29.04 2°56.851 -999 0.070536 0.390395 -0.275608
2005-09-22 08:54:54 51°28.983 2°56.479 -999 0.070536 0.390423 -0.275608
2005-09-22 08:55:54 51°28.926 2°56.106 -999 0.070536 0.390451 -0.275608
2005-09-22 08:56:54 51°28.869 2°55.734 -999 0.070536 0.390479 -0.275608
2005-09-22 08:57:55 51°28.812 2°55.358 -999 0.070536 0.390507 -0.275608
2005-09-22 08:58:54 51°28.758 2°54.99 -999 0.070536 0.390528 -0.275608
2005-09-22 08:59:54 51°28.702 2°54.618 -999 0.070433 0.389967 -0.275608
2005-09-22 09:00:55 51°28.646 2°54.242 -999 0.070536 0.390577 -0.275608
2005-09-22 09:01:55 51°28.591 2°53.87 -999 0.070433 0.390017 -0.275608
2005-09-22 09:02:54 51°28.537 2°53.502 -999 0.070433 0.390038 -0.275608
2005-09-22 09:03:55 51°28.484 2°53.127 -999 0.070536 0.390655 -0.309317
2005-09-22 09:04:54 51°28.431 2°52.758 -999 0.070433 0.390094 -0.275608
2005-09-22 09:05:55 51°28.377 2°52.383 -999 0.070536 0.390704 -0.275608
2005-09-22 09:06:54 51°28.323 2°52.013 -999 0.070433 0.390136 -0.275608
2005-09-22 09:07:54 51°28.268 2°51.638 -999 0.070433 0.390157 -0.275608
2005-09-22 09:08:55 51°28.21 2°51.258 -999 0.070433 0.390185 -0.309317
2005-09-22 09:09:54 51°28.155 2°50.882 -999 0.070433 0.390199 -0.275608
2005-09-22 09:10:54 51°28.098 2°50.503 -999 0.070433 0.39022 -0.309317
2005-09-22 09:11:55 51°28.041 2°50.121 -999 0.070433 0.390241 -0.275608
2005-09-22 09:12:55 51°27.985 2°49.745 -999 0.070433 0.390262 -0.309317
2005-09-22 09:13:54 51°27.928 2°49.371 -999 0.070433 0.390283 -0.275608
2005-09-22 09:14:55 51°27.87 2°48.989 -999 0.070433 0.390304 -0.275608
2005-09-22 09:15:55 51°27.813 2°48.608 -999 0.070433 0.390325 -0.309317
2005-09-22 09:16:54 51°27.756 2°48.233 -999 0.070433 0.390347 -0.275608
2005-09-22 09:17:55 51°27.696 2°47.85 -999 0.070433 0.390368 -0.309317
2005-09-22 09:18:55 51°27.638 2°47.467 -999 0.070433 0.390389 -0.309317
2005-09-22 09:19:55 51°27.577 2°47.084 -999 0.070433 0.390403 -0.309317
2005-09-22 09:20:55 51°27.516 2°46.699 -999 0.070433 0.390424 -0.309317
2005-09-22 09:21:55 51°27.455 2°46.315 -999 0.070433 0.390438 -0.309317
2005-09-22 09:22:55 51°27.396 2°45.931 -999 0.070433 0.390459 -0.309317
2005-09-22 09:23:55 51°27.335 2°45.548 -999 0.070433 0.39048 -0.275608
2005-09-22 09:24:55 51°27.276 2°45.163 -999 0.070433 0.390501 -0.309317
2005-09-22 09:25:54 51°27.23 2°44.786 -999 0.070433 0.390515 -0.275608
2005-09-22 09:26:55 51°27.311 2°44.455 -999 0.070433 0.390536 -0.275608
2005-09-22 09:27:55 51°27.502 2°44.293 -999 0.070433 0.39055 -0.309317
2005-09-22 09:28:54 51°27.692 2°44.122 -999 0.070433 0.390579 -0.309317
2005-09-22 09:29:55 51°27.886 2°43.95 -999 0.070433 0.390586 -0.309317
2005-09-22 09:30:54 51°28.077 2°43.782 -999 0.070433 0.3906 -0.309317
2005-09-22 09:31:54 51°28.267 2°43.617 -999 0.070433 0.390614 -0.309317
2005-09-22 09:32:55 51°28.464 2°43.495 -999 0.070433 0.390621 -0.309317
2005-09-22 09:33:54 51°28.627 2°43.616 -999 0.070433 0.390642 -0.309317
2005-09-22 09:34:54 51°28.708 2°43.899 -999 0.070433 0.390649 -0.309317
2005-09-22 09:35:55 51°28.783 2°44.193 -999 0.070433 0.39067 -0.309317
2005-09-22 09:36:55 51°28.853 2°44.487 -999 0.070433 0.390677 -0.309317
2005-09-22 09:37:54 51°28.927 2°44.774 -999 0.070433 0.390691 -0.309317
2005-09-22 09:38:54 51°28.997 2°45.065 -999 0.070433 0.390705 -0.309317
2005-09-22 09:39:54 51°29.066 2°45.358 -999 0.070433 0.390727 -0.309317
2005-09-22 09:40:54 51°29.139 2°45.649 -999 0.07033 0.390151 -0.309317
2005-09-22 09:41:54 51°29.212 2°45.936 -999 0.07033 0.390172 -0.309317
2005-09-22 09:42:54 51°29.287 2°46.223 -999 0.07033 0.390186 -0.309317
2005-09-22 09:43:54 51°29.358 2°46.514 -999 0.07033 0.390207 -0.309317
2005-09-22 09:44:54 51°29.428 2°46.806 -999 0.07033 0.390221 -0.309317
2005-09-22 09:45:55 51°29.495 2°47.102 -999 0.07033 0.390235 -0.309317
2005-09-22 09:46:54 51°29.564 2°47.391 -999 0.07033 0.390249 -0.309317
2005-09-22 09:47:55 51°29.631 2°47.688 -999 0.07033 0.39027 -0.309317
2005-09-22 09:48:55 51°29.699 2°47.982 -999 0.07033 0.390284 -0.309317
2005-09-22 09:49:55 51°29.767 2°48.276 -999 0.07033 0.390298 -0.309317
2005-09-22 09:50:55 51°29.836 2°48.57 -999 0.07033 0.39032 -0.309317
2005-09-22 09:51:55 51°29.905 2°48.864 -999 0.07033 0.390327 -0.309317
2005-09-22 09:52:54 51°29.972 2°49.152 -999 0.07033 0.390348 -0.309317
2005-09-22 09:53:55 51°30.044 2°49.446 -999 0.07033 0.390369 -0.309317
2005-09-22 09:54:54 51°30.114 2°49.735 -999 0.07033 0.390383 -0.309317
2005-09-22 09:55:55 51°30.184 2°50.03 -999 0.07033 0.390397 -0.309317
2005-09-22 09:56:54 51°30.253 2°50.321 -999 0.07033 0.390418 -0.309317
2005-09-22 09:57:54 51°30.322 2°50.614 -999 0.07033 0.390425 -0.309317
2005-09-22 09:58:55 51°30.392 2°50.913 -999 0.070227 0.389856 -0.309317
2005-09-22 09:59:55 51°30.462 2°51.207 -999 0.070227 0.389884 -0.309317
2005-09-22 10:00:55 51°30.529 2°51.503 -999 0.070227 0.389898 -0.309317
2005-09-22 10:01:54 51°30.596 2°51.797 -999 0.070227 0.389926 -0.309317
2005-09-22 10:02:55 51°30.662 2°52.095 -999 0.070227 0.389954 -0.309317
2005-09-22 10:03:54 51°30.728 2°52.388 -999 0.070227 0.389976 -0.309317
2005-09-22 10:04:54 51°30.797 2°52.679 -999 0.070227 0.390004 -0.309317
2005-09-22 10:05:54 51°30.87 2°52.966 -999 0.070227 0.390032 -0.309317
2005-09-22 10:06:54 51°30.943 2°53.251 -999 0.070227 0.39006 -0.309317
2005-09-22 10:07:54 51°31.016 2°53.536 -999 0.070227 0.390081 -0.309317
2005-09-22 10:08:54 51°31.091 2°53.819 -999 0.070227 0.390102 -0.309317
2005-09-22 10:09:54 51°31.164 2°54.104 -999 0.070227 0.390131 -0.309317
2005-09-22 10:10:54 51°31.237 2°54.388 -999 0.070227 0.390152 -0.309317
2005-09-22 10:11:55 51°31.308 2°54.677 -999 0.070227 0.390187 -0.309317
2005-09-22 10:12:55 51°31.38 2°54.963 -999 0.070227 0.390208 -0.309317
2005-09-22 10:13:55 51°31.451 2°55.25 -999 0.070227 0.390243 -0.309317
2005-09-22 10:14:54 51°31.522 2°55.536 -999 0.070124 0.389673 -0.309317
2005-09-22 10:15:54 51°31.592 2°55.825 -999 0.070124 0.389709 -0.309317
2005-09-22 10:16:55 51°31.664 2°56.121 -999 0.070124 0.389737 -0.309317
2005-09-22 10:17:54 51°31.733 2°56.41 -999 0.070124 0.389765 -0.309317
2005-09-22 10:18:54 51°31.803 2°56.705 -999 0.070124 0.389786 -0.309317
2005-09-22 10:19:55 51°31.874 2°57.002 -999 0.070124 0.389814 -0.309317
2005-09-22 10:20:55 51°31.946 2°57.3 -999 0.070124 0.38985 -0.309317
2005-09-22 10:21:54 51°32.017 2°57.592 -999 0.070124 0.389871 -0.309317
2005-09-22 10:22:54 51°32.092 2°57.888 -999 0.070124 0.389899 -0.309317
2005-09-22 10:23:55 51°32.169 2°58.187 -999 0.070124 0.389934 -0.309317
2005-09-22 10:24:55 51°32.269 2°58.437 -999 0.070124 0.389962 -0.309317
2005-09-22 10:25:55 51°32.41 2°58.637 -999 0.070124 0.389991 -0.309317
2005-09-22 10:26:54 51°32.541 2°58.863 -999 0.070124 0.390012 -0.309317
2005-09-22 10:27:55 51°32.677 2°59.094 -999 0.070124 0.390047 -0.309317
2005-09-22 10:28:55 51°32.807 2°59.325 -999 0.070124 0.390061 -0.309317
2005-09-22 10:29:54 51°32.937 2°59.554 -999 0.070124 0.390104 -0.309317
2005-09-22 10:30:54 51°33.069 2°59.786 -999 0.070124 0.390132 -0.309317
2005-09-22 10:31:55 51°33.203 3°0.021 -999 0.070124 0.390153 -0.309317
2005-09-22 10:32:55 51°33.335 3°0.252 -999 0.070021 0.38959 -0.309317
2005-09-22 10:33:55 51°33.466 3°0.482 -999 0.070021 0.389618 -0.309317
2005-09-22 10:34:55 51°33.598 3°0.711 -999 0.070021 0.389639 -0.309317
2005-09-22 10:35:54 51°33.726 3°0.937 -999 0.070021 0.389667 -0.309317
2005-09-22 10:36:55 51°33.868 3°1.131 -999 0.070021 0.389724 -0.309317
2005-09-22 10:37:54 51°34.051 3°1.097 -999 0.070021 0.389724 -0.309317
2005-09-22 10:38:55 51°34.244 3°1.035 -999 0.070021 0.389745 -0.309317
2005-09-22 10:39:55 51°34.378 3°0.816 -999 0.070021 0.389801 -0.309317
2005-09-22 10:40:54 51°34.334 3°0.462 -999 0.070021 0.389794 -0.309317
2005-09-22 10:41:54 51°34.234 3°0.107 -999 0.070021 0.389808 -0.309317
2005-09-22 10:42:55 51°34.129 2°59.75 -999 0.070021 0.389844 -0.309317
2005-09-22 10:43:55 51°34.025 2°59.395 -999 0.070021 0.389851 -0.309317
2005-09-22 10:44:54 51°33.923 2°59.041 -999 0.070021 0.389872 -0.309317
2005-09-22 10:45:55 51°33.818 2°58.679 -999 0.070021 0.389879 -0.309317
2005-09-22 10:46:55 51°33.717 2°58.325 -999 0.070021 0.389886 -0.309317
2005-09-22 10:47:55 51°33.611 2°57.968 -999 0.070021 0.3899 -0.309317
2005-09-22 10:48:54 51°33.507 2°57.617 -999 0.070021 0.389907 -0.309317
2005-09-22 10:49:54 51°33.4 2°57.26 -999 0.070021 0.389914 -0.309317
2005-09-22 10:50:55 51°33.293 2°56.895 -999 0.070021 0.389921 -0.309317
2005-09-22 10:51:54 51°33.188 2°56.542 -999 0.070021 0.389935 -0.309317
2005-09-22 10:52:55 51°33.081 2°56.181 -999 0.070021 0.389942 -0.309317
2005-09-22 10:53:55 51°32.976 2°55.823 -999 0.070021 0.389957 -0.309317
2005-09-22 10:54:54 51°32.869 2°55.467 -999 0.070021 0.389957 -0.309317
2005-09-22 10:55:54 51°32.761 2°55.107 -999 0.070021 0.389964 -0.309317
2005-09-22 10:56:54 51°32.655 2°54.749 -999 0.070021 0.389971 -0.309317
2005-09-22 10:57:54 51°32.549 2°54.388 -999 0.070021 0.389978 -0.309317
2005-09-22 10:58:54 51°32.442 2°54.03 -999 0.070021 0.389985 -0.309317
2005-09-22 10:59:54 51°32.337 2°53.672 -999 0.070021 0.389992 -0.309317
2005-09-22 11:00:54 51°32.23 2°53.313 -999 0.070021 0.389999 -0.309317
2005-09-22 11:01:54 51°32.124 2°52.955 -999 0.069918 0.389407 -0.309317
2005-09-22 11:02:55 51°32.016 2°52.594 -999 0.069918 0.389407 -0.309317
2005-09-22 11:03:55 51°31.911 2°52.233 -999 0.069918 0.389414 -0.309317
2005-09-22 11:04:55 51°31.805 2°51.874 -999 0.069918 0.389421 -0.309317
2005-09-22 11:05:54 51°31.7 2°51.522 -999 0.070021 0.390013 -0.309317
2005-09-22 11:06:55 51°31.593 2°51.156 -999 0.069918 0.389428 -0.309317
2005-09-22 11:07:54 51°31.49 2°50.804 -999 0.069918 0.389428 -0.309317
2005-09-22 11:08:54 51°31.37 2°50.457 -999 0.069918 0.389428 -0.309317
2005-09-22 11:09:54 51°31.243 2°50.114 -999 0.069918 0.389435 -0.309317
2005-09-22 11:10:55 51°31.114 2°49.767 -999 0.069918 0.389435 -0.309317
2005-09-22 11:11:55 51°30.988 2°49.422 -999 0.069918 0.389435 -0.309317
2005-09-22 11:12:55 51°30.864 2°49.079 -999 0.069918 0.389435 -0.309317
2005-09-22 11:13:55 51°30.739 2°48.735 -999 0.069918 0.389442 -0.309317
2005-09-22 11:14:55 51°30.615 2°48.389 -999 0.069918 0.389442 -0.309317
2005-09-22 11:15:54 51°30.493 2°48.052 -999 0.069918 0.389442 -0.309317
2005-09-22 11:16:55 51°30.367 2°47.705 -999 0.069918 0.389449 -0.309317
2005-09-22 11:17:55 51°30.241 2°47.359 -999 0.069918 0.389442 -0.309317
2005-09-22 11:18:54 51°30.118 2°47.021 -999 0.069918 0.389442 -0.309317
2005-09-22 11:19:54 51°29.997 2°46.676 -999 0.069918 0.389449 -0.309317
2005-09-22 11:20:54 51°29.875 2°46.334 -999 0.069918 0.389442 -0.309317
2005-09-22 11:21:55 51°29.751 2°45.986 -999 0.069918 0.389442 -0.309317
2005-09-22 11:22:55 51°29.631 2°45.646 -999 0.069918 0.389442 -0.309317
2005-09-22 11:23:54 51°29.514 2°45.312 -999 0.069918 0.389442 -0.343027
2005-09-22 11:24:54 51°29.394 2°44.974 -999 0.069918 0.389442 -0.309317
2005-09-22 11:25:54 51°29.275 2°44.636 -999 0.069918 0.389442 -0.309317
2005-09-22 11:26:55 51°29.152 2°44.291 -999 0.069918 0.389435 -0.309317
2005-09-22 11:27:54 51°29.034 2°43.957 -999 0.069918 0.389435 -0.309317
2005-09-22 11:28:54 51°28.914 2°43.617 -999 0.069918 0.389435 -0.309317
2005-09-22 11:29:54 51°28.794 2°43.275 -999 0.069918 0.389435 -0.309317
2005-09-22 11:30:55 51°28.671 2°42.93 -999 0.069918 0.389428 -0.309317
2005-09-22 11:31:54 51°28.551 2°42.592 -999 0.069918 0.389428 -0.309317
2005-09-22 11:32:55 51°28.415 2°42.26 -999 0.069918 0.389428 -0.309317
2005-09-22 11:33:54 51°28.201 2°42.128 -999 0.069918 0.389435 -0.309317
2005-09-22 11:34:55 51°27.965 2°42.184 -999 0.069918 0.389414 -0.309317
2005-09-22 11:35:55 51°27.736 2°42.271 -999 0.069918 0.389414 -0.309317
2005-09-22 11:36:56 51°27.506 2°42.357 -999 0.069918 0.389414 -0.309317
2005-09-22 11:37:55 51°27.28 2°42.438 -999 0.069918 0.389414 -0.309317
2005-09-22 11:38:55 51°27.057 2°42.511 -999 0.069918 0.389414 -0.343027
2005-09-22 11:39:54 51°26.84 2°42.588 -999 0.069918 0.389407 -0.309317
2005-09-22 11:40:55 51°26.615 2°42.665 -999 0.069918 0.389407 -0.309317
2005-09-22 11:41:54 51°26.397 2°42.741 -999 0.069918 0.389407 -0.343027
2005-09-22 11:42:55 51°26.172 2°42.823 -999 0.069918 0.389407 -0.343027
2005-09-22 11:43:54 51°25.951 2°42.899 -999 0.069918 0.3894 -0.309317
2005-09-22 11:44:55 51°25.723 2°42.98 -999 0.069918 0.389407 -0.343027
2005-09-22 11:45:54 51°25.501 2°43.063 -999 0.069918 0.3894 -0.309317
2005-09-22 11:46:55 51°25.273 2°43.152 -999 0.069918 0.3894 -0.309317
2005-09-22 11:47:55 51°25.047 2°43.239 -999 0.069918 0.3894 -0.309317
2005-09-22 11:48:54 51°24.825 2°43.327 -999 0.069918 0.3894 -0.343027
2005-09-22 11:49:55 51°24.594 2°43.421 -999 0.069918 0.3894 -0.309317
2005-09-22 11:50:55 51°24.372 2°43.518 -999 0.069918 0.3894 -0.309317
2005-09-22 11:51:54 51°24.152 2°43.596 -999 0.069918 0.3894 -0.309317
2005-09-22 11:52:55 51°23.928 2°43.679 -999 0.069918 0.3894 -0.309317
2005-09-22 11:53:55 51°23.709 2°43.757 -999 0.069918 0.3894 -0.309317
2005-09-22 11:54:55 51°23.485 2°43.838 -999 0.069918 0.389393 -0.309317
2005-09-22 11:55:55 51°23.265 2°43.917 -999 0.069918 0.389393 -0.309317
2005-09-22 11:56:54 51°23.043 2°44.001 -999 0.069918 0.389393 -0.309317
2005-09-22 11:57:54 51°22.819 2°44.092 -999 0.069918 0.389386 -0.343027
2005-09-22 11:58:54 51°22.595 2°44.181 -999 0.069918 0.389386 -0.309317
2005-09-22 11:59:55 51°22.368 2°44.274 -999 0.069918 0.389393 -0.309317
2005-09-22 12:00:55 51°22.149 2°44.383 -999 0.069918 0.389386 -0.309317
2005-09-22 12:01:55 51°21.932 2°44.502 -999 0.069918 0.389393 -0.309317
2005-09-22 12:02:54 51°21.717 2°44.621 -999 0.069918 0.389386 -0.343027
2005-09-22 12:03:55 51°21.498 2°44.746 -999 0.069918 0.389386 -0.309317
2005-09-22 12:04:55 51°21.304 2°44.929 -999 0.069918 0.389378 -0.309317
2005-09-22 12:05:55 51°21.12 2°45.137 -999 0.069918 0.389378 -0.343027
2005-09-22 12:06:55 51°20.937 2°45.339 -999 0.069918 0.389371 -0.343027
2005-09-22 12:07:54 51°20.758 2°45.537 -999 0.069918 0.389371 -0.309317
2005-09-22 12:08:54 51°20.589 2°45.752 -999 0.069918 0.389371 -0.343027
2005-09-22 12:09:55 51°20.441 2°46.007 -999 0.069918 0.389371 -0.343027
2005-09-22 12:10:55 51°20.305 2°46.277 -999 0.069918 0.389364 -0.343027
2005-09-22 12:11:55 51°20.17 2°46.548 -999 0.069918 0.389357 -0.309317
2005-09-22 12:12:54 51°20.04 2°46.819 -999 0.069918 0.38935 -0.343027
2005-09-22 12:13:54 51°19.911 2°47.094 -999 0.069918 0.389343 -0.343027
2005-09-22 12:14:55 51°19.783 2°47.372 -999 0.069918 0.389336 -0.343027
2005-09-22 12:15:55 51°19.653 2°47.649 -999 0.069918 0.389329 -0.343027
2005-09-22 12:16:55 51°19.524 2°47.924 -999 0.069918 0.389322 -0.343027
2005-09-22 12:17:55 51°19.396 2°48.201 -999 0.069918 0.389308 -0.343027
2005-09-22 12:18:54 51°19.271 2°48.474 -999 0.069918 0.389308 -0.309317
2005-09-22 12:19:55 51°19.144 2°48.759 -999 0.069918 0.389294 -0.309317
2005-09-22 12:20:55 51°19.02 2°49.04 -999 0.069918 0.38928 -0.309317
2005-09-22 12:21:54 51°18.897 2°49.321 -999 0.069918 0.389266 -0.343027
2005-09-22 12:22:54 51°18.771 2°49.603 -999 0.069918 0.389259 -0.343027
2005-09-22 12:23:55 51°18.64 2°49.885 -999 0.069918 0.389251 -0.309317
2005-09-22 12:24:54 51°18.509 2°50.161 -999 0.069918 0.389237 -0.343027
2005-09-22 12:25:55 51°18.375 2°50.442 -999 0.069918 0.389223 -0.343027
2005-09-22 12:26:55 51°18.248 2°50.718 -999 0.069918 0.389216 -0.343027
2005-09-22 12:27:54 51°18.112 2°50.987 -999 0.069918 0.389202 -0.343027
2005-09-22 12:28:54 51°17.976 2°51.259 -999 0.069918 0.389181 -0.343027
2005-09-22 12:29:55 51°17.831 2°51.53 -999 0.069918 0.389167 -0.343027
2005-09-22 12:30:55 51°17.683 2°51.789 -999 0.069918 0.389153 -0.343027
2005-09-22 12:31:55 51°17.526 2°52.042 -999 0.069918 0.389132 -0.343027
2005-09-22 12:32:54 51°17.341 2°52.242 -999 0.070021 0.389709 -0.309317
2005-09-22 12:33:55 51°17.148 2°52.44 -999 0.070021 0.389688 -0.343027
2005-09-22 12:34:55 51°16.956 2°52.634 -999 0.070021 0.389674 -0.343027
2005-09-22 12:35:54 51°16.764 2°52.823 -999 0.070021 0.389653 -0.309317
2005-09-22 12:36:54 51°16.565 2°53.007 -999 0.070021 0.389639 -0.343027
2005-09-22 12:37:54 51°16.37 2°53.191 -999 0.070021 0.389618 -0.343027
2005-09-22 12:38:55 51°16.164 2°53.347 -999 0.070021 0.389604 -0.309317
2005-09-22 12:39:55 51°15.955 2°53.493 -999 0.070021 0.38959 -0.309317
2005-09-22 12:40:55 51°15.744 2°53.628 -999 0.070021 0.389568 -0.309317
2005-09-22 12:41:55 51°15.533 2°53.762 -999 0.070021 0.389554 -0.343027
2005-09-22 12:42:55 51°15.338 2°53.894 -999 0.070021 0.38954 -0.343027
2005-09-22 12:43:54 51°15.192 2°53.995 -999 0.070021 0.389512 -0.343027
2005-09-22 12:44:55 51°15.018 2°54.132 -999 0.070021 0.389505 -0.343027
2005-09-22 12:45:54 51°14.847 2°54.303 -999 0.070021 0.389484 -0.343027
2005-09-22 12:46:55 51°14.681 2°54.497 -999 0.070021 0.389463 -0.343027
2005-09-22 12:47:54 51°14.539 2°54.724 -999 0.070021 0.389441 -0.343027
2005-09-22 12:48:54 51°14.411 2°54.975 -999 0.070021 0.38942 -0.343027
2005-09-22 12:49:55 51°14.294 2°55.21 -999 0.070021 0.389406 -0.343027
2005-09-22 12:50:55 51°14.16 2°55.383 -999 0.070021 0.389385 -0.343027
2005-09-22 12:51:54 51°14.034 2°55.479 -999 0.070021 0.389364 -0.343027
2005-09-22 12:52:54 51°13.93 2°55.561 -999 0.070021 0.389343 -0.343027
2005-09-22 12:53:54 51°13.825 2°55.638 -999 0.070021 0.389329 -0.343027
2005-09-22 12:54:55 51°13.745 2°55.729 -999 0.070021 0.389308 -0.343027
2005-09-22 12:55:54 51°13.689 2°55.84 -999 0.070021 0.389279 -0.343027
2005-09-22 12:56:55 51°13.643 2°55.961 -999 0.070021 0.389258 -0.343027
2005-09-22 12:57:54 51°13.614 2°56.056 -999 0.070021 0.389237 -0.343027
2005-09-22 12:58:55 51°13.603 2°56.091 -999 0.070021 0.389216 -0.343027
2005-09-22 12:59:55 51°13.6 2°56.098 -999 0.070021 0.389195 -0.343027
2005-09-22 13:00:54 51°13.599 2°56.1 -999 0.070021 0.389174 -0.343027